Latest Weather Observations for Sheoaks

IDV60901

Issued at 8:41 am EDT Saturday 31 January 2015 (issued every 10 minutes, with the page automatically refreshed every 10 minutes)

About weather observations | Map of Melbourne area stations | Latest observations for Melbourne area | Other Formats
Station Details ID: 087168 Name: SHEOAKS Lat: -37.91 Lon: 144.13 Height: 236.7 m
Data from the previous 72 hours. | See also: Recent months at Sheoaks
Date/Time
EDT
Tmp

°C
App
Tmp
°C
Dew
Point
°C
Rel
Hum
%
Delta-T

°C
Wind Press
QNH
hPa
Press
MSL
hPa
Rain
since
9 am
mm
Dir
 
Spd
km/h
Gust
km/h
Spd
kts
Gust
kts
31/08:30am 12.9 12.3 10.4 85 1.3 WSW 4 9 2 5 1012.9 1012.2 0.0
31/08:00am 12.3 10.3 10.2 87 1.1 W 11 19 6 10 1012.9 1012.2 0.0
31/07:30am 11.9 9.5 10.1 89 0.9 W 13 19 7 10 1012.9 1012.2 0.0
31/07:00am 11.7 9.3 9.9 89 0.9 W 13 20 7 11 1012.8 1012.1 0.0
31/06:30am 11.7 9.2 9.8 88 1.0 W 13 19 7 10 1012.7 1012.0 0.0
31/06:00am 11.5 8.9 9.4 87 1.1 W 13 19 7 10 1012.5 1011.8 0.0
31/05:30am 11.8 9.3 9.7 87 1.1 W 13 19 7 10 1012.1 1011.3 0.0
31/05:00am 11.4 9.2 9.5 88 1.0 W 11 17 6 9 1012.2 1011.5 0.0
31/04:30am 11.7 9.9 9.6 87 1.1 W 9 15 5 8 1012.2 1011.5 0.0
31/04:00am 11.9 10.1 9.3 84 1.3 W 9 15 5 8 1012.3 1011.6 0.0
31/03:30am 12.1 10.3 9.5 84 1.3 W 9 15 5 8 1012.5 1011.8 0.0
31/03:00am 11.7 9.1 9.3 85 1.2 W 13 19 7 10 1012.8 1012.1 0.0
31/02:30am 10.8 9.1 8.2 84 1.3 WNW 7 13 4 7 1012.9 1012.2 0.0
31/02:00am 10.9 8.0 8.0 82 1.4 W 13 17 7 9 1013.1 1012.4 0.0
31/01:30am 9.7 7.9 8.1 90 0.8 WNW 7 13 4 7 1013.5 1012.8 0.0
31/01:00am 8.9 6.9 7.0 88 0.9 NW 7 9 4 5 1013.7 1013.0 0.0
31/12:30am 9.0 7.1 6.6 85 1.1 NNW 6 6 3 3 1013.8 1013.1 0.0
31/12:00am 10.3 9.3 7.4 82 1.4 NNW 2 4 1 2 1013.8 1013.1 0.0
 
Date/Time
EDT
Tmp

°C
App
Tmp
°C
Dew
Point
°C
Rel
Hum
%
Delta-T

°C
Wind Press
QNH
hPa
Press
MSL
hPa
Rain
since
9 am
mm
Dir
 
Spd
km/h
Gust
km/h
Spd
kts
Gust
kts
30/11:30pm 11.3 10.8 7.8 79 1.7 CALM 0 4 0 2 1014.0 1013.3 0.0
30/11:00pm 12.3 11.1 8.0 75 2.1 S 4 7 2 4 1014.4 1013.7 0.0
30/10:30pm 12.9 11.3 8.0 72 2.4 S 6 7 3 4 1014.5 1013.8 0.0
30/10:00pm 13.0 11.8 7.9 71 2.5 SSE 4 6 2 3 1014.6 1013.9 0.0
30/09:30pm 13.4 11.6 8.0 70 2.7 SSE 7 9 4 5 1014.6 1013.9 0.0
30/09:00pm 14.0 11.5 8.2 68 2.9 SSE 11 17 6 9 1014.4 1013.7 0.0
30/08:30pm 14.8 10.5 7.1 60 3.8 SE 19 24 10 13 1014.1 1013.4 0.0
30/08:00pm 15.8 12.3 7.1 56 4.3 SE 15 22 8 12 1014.0 1013.3 0.0
30/07:30pm 16.6 12.7 7.0 53 4.8 SE 17 24 9 13 1014.0 1013.3 0.0
30/07:00pm 17.3 13.0 6.8 50 5.3 SE 19 30 10 16 1013.9 1013.2 0.0
30/06:30pm 18.2 13.6 6.4 46 5.9 SE 20 30 11 16 1013.9 1013.2 0.0
30/06:00pm 18.9 14.4 6.1 43 6.4 SE 19 28 10 15 1013.9 1013.2 0.0
30/05:30pm 19.1 14.9 5.9 42 6.6 SSE 17 32 9 17 1013.9 1013.2 0.0
30/05:00pm 19.8 15.2 5.8 40 7.0 SSE 19 30 10 16 1014.2 1013.5 0.0
30/04:30pm 19.2 14.7 6.3 43 6.5 SSE 19 30 10 16 1014.3 1013.6 0.0
30/04:00pm 19.5 15.4 6.3 42 6.7 SSE 17 30 9 16 1014.5 1013.8 0.0
30/03:30pm 21.1 16.8 7.0 40 7.3 SSE 19 28 10 15 1014.8 1014.1 0.0
30/03:00pm 20.3 16.3 6.6 41 7.0 SSE 17 28 9 15 1015.0 1014.3 0.0
30/02:30pm 19.2 14.8 6.7 44 6.3 SE 19 30 10 16 1015.4 1014.7 0.0
30/02:00pm 20.3 16.4 7.3 43 6.7 SSE 17 26 9 14 1015.6 1014.9 0.0
30/01:30pm 18.9 15.1 7.4 47 5.9 SSW 17 24 9 13 1016.1 1015.4 0.0
30/01:00pm 19.7 16.2 7.1 44 6.5 SE 15 33 8 18 1016.4 1015.7 0.0
30/12:30pm 19.3 14.9 6.4 43 6.5 SE 19 30 10 16 1016.6 1015.9 0.0
30/12:00pm 17.9 13.9 6.7 48 5.6 SSE 17 22 9 12 1016.9 1016.2 0.0
30/11:30am 19.3 15.2 7.7 47 6.0 SSE 19 30 10 16 1017.0 1016.3 0.0
30/11:00am 16.7 14.0 8.9 60 4.1 SSE 13 20 7 11 1017.2 1016.5 0.0
30/10:30am 15.5 13.8 9.8 69 3.0 SSE 9 17 5 9 1017.3 1016.6 0.0
30/10:00am 16.3 13.7 9.5 64 3.6 SE 13 19 7 10 1017.4 1016.7 0.0
30/09:30am 15.6 14.5 10.8 73 2.6 S 7 13 4 7 1017.5 1016.8 0.0
30/09:00am 13.8 12.6 10.2 79 1.9 SSW 7 11 4 6 1017.6 1016.9 0.0
30/08:30am 12.8 11.6 10.3 85 1.3 SSW 7 11 4 6 1017.4 1016.7 0.0
30/08:00am 11.3 10.7 10.4 94 0.5 W 4 6 2 3 1017.2 1016.5 0.0
30/07:30am 10.1 9.2 9.3 95 0.4 NW 4 6 2 3 1017.1 1016.4 0.0
30/07:00am 9.0 7.8 8.1 94 0.4 NW 4 6 2 3 1016.9 1016.2 0.0
30/06:30am 9.4 8.6 8.3 93 0.5 ENE 2 4 1 2 1016.9 1016.2 0.0
30/06:00am 10.3 9.7 8.9 91 0.7 SSW 2 4 1 2 1016.6 1015.9 0.0
30/05:30am 10.8 9.9 9.2 90 0.8 S 4 6 2 3 1016.6 1015.9 0.0
30/05:00am 11.2 10.4 9.6 90 0.8 SSE 4 7 2 4 1016.5 1015.8 0.0
30/04:30am 11.7 10.7 10.4 92 0.7 S 6 7 3 4 1016.7 1016.0 0.0
30/04:00am 11.8 11.3 10.7 93 0.6 SSE 4 7 2 4 1016.9 1016.2 0.0
30/03:30am 10.4 10.2 9.2 92 0.6 CALM 0 6 0 3 1017.2 1016.5 0.0
30/03:00am 9.5 9.1 8.1 91 0.7 CALM 0 0 0 0 1017.4 1016.7 0.0
30/02:30am 10.1 9.8 8.5 90 0.8 CALM 0 0 0 0 1017.6 1016.9 0.0
30/02:00am 11.0 10.4 8.9 87 1.1 SE 2 6 1 3 1017.9 1017.2 0.0
30/01:30am 11.3 10.3 9.0 86 1.2 SE 4 4 2 2 1018.1 1017.4 0.0
30/01:00am 11.4 9.9 8.6 83 1.4 ESE 6 7 3 4 1018.5 1017.8 0.0
30/12:30am 12.6 11.3 9.1 79 1.8 SE 6 7 3 4 1018.7 1018.0 0.0
30/12:00am 13.2 11.4 9.3 77 2.0 SE 9 15 5 8 1018.8 1018.1 0.0
 
Date/Time
EDT
Tmp

°C
App
Tmp
°C
Dew
Point
°C
Rel
Hum
%
Delta-T

°C
Wind Press
QNH
hPa
Press
MSL
hPa
Rain
since
9 am
mm
Dir
 
Spd
km/h
Gust
km/h
Spd
kts
Gust
kts
29/11:30pm 14.1 11.1 9.3 73 2.5 SE 15 22 8 12 1018.9 1018.2 0.0
29/11:00pm 14.3 11.4 9.5 73 2.5 SE 15 24 8 13 1019.0 1018.3 0.0
29/10:30pm 14.4 11.9 9.6 73 2.5 SSE 13 20 7 11 1019.2 1018.5 0.0
29/10:00pm 14.4 11.8 9.4 72 2.6 SE 13 20 7 11 1019.2 1018.5 0.0
29/09:30pm 14.2 11.6 9.2 72 2.6 SE 13 22 7 12 1019.3 1018.6 0.0
29/09:00pm 14.5 11.1 9.1 70 2.8 SE 17 24 9 13 1019.3 1018.6 0.0
29/08:30pm 14.8 11.3 8.7 67 3.1 SSE 17 24 9 13 1019.2 1018.5 0.0
29/08:00pm 14.9 10.7 8.4 65 3.3 SE 20 32 11 17 1019.2 1018.5 0.0
29/07:30pm 15.8 11.2 8.3 61 3.8 SSE 22 39 12 21 1019.0 1018.3 0.0
29/07:00pm 17.3 12.3 8.2 55 4.7 SE 24 35 13 19 1018.7 1018.0 0.0
29/06:30pm 18.3 13.7 8.3 52 5.2 SE 22 33 12 18 1018.7 1018.0 0.0
29/06:00pm 17.0 11.8 7.1 52 5.0 SE 24 35 13 19 1018.8 1018.1 0.0
29/05:30pm 18.2 13.4 7.3 49 5.6 SE 22 35 12 19 1018.8 1018.1 0.0
29/05:00pm 18.3 13.5 7.4 49 5.6 SE 22 32 12 17 1018.9 1018.2 0.0
29/04:30pm 18.4 14.0 7.2 48 5.7 SE 20 37 11 20 1019.3 1018.6 0.0
29/04:00pm 19.7 14.8 7.1 44 6.4 SE 22 56 12 30 1019.5 1018.9 0.0
29/03:30pm 18.2 13.3 7.0 48 5.7 SSE 22 33 12 18 1019.7 1019.1 0.0
29/03:00pm 19.4 14.3 6.2 42 6.6 SE 22 35 12 19 1019.8 1019.2 0.0
29/02:30pm 19.1 13.4 6.9 45 6.2 SE 26 41 14 22 1020.1 1019.5 0.0
29/02:00pm 18.8 14.2 6.6 45 6.1 SSE 20 37 11 20 1020.2 1019.6 0.0
29/01:30pm 18.2 13.7 6.1 45 6.0 SE 19 32 10 17 1020.3 1019.7 0.0
29/01:00pm 19.6 15.1 6.0 41 6.8 SE 19 30 10 16 1020.7 1020.0 0.0
29/12:30pm 19.6 15.0 5.6 40 7.0 SE 19 32 10 17 1021.0 1020.3 0.0
29/12:00pm 18.4 14.0 6.6 46 5.9 SSE 19 30 10 16 1021.0 1020.3 0.0
29/11:30am 17.1 12.0 6.0 48 5.5 SE 22 33 12 18 1021.3 1020.6 0.0
29/11:00am 17.4 12.5 8.3 55 4.7 ESE 24 37 13 20 1021.3 1020.6 0.0
29/10:30am 15.7 11.5 7.5 58 4.1 SE 19 28 10 15 1021.4 1020.7 0.0
29/10:00am 15.9 12.3 8.4 61 3.8 ESE 17 28 9 15 1021.5 1020.8 0.0
29/09:30am 16.5 12.4 8.5 59 4.1 ESE 20 28 11 15 1021.4 1020.7 0.0
29/09:00am 16.2 11.4 8.9 62 3.8 ESE 24 33 13 18 1021.3 1020.6 0.0
29/08:30am 15.1 12.1 9.2 68 3.1 ESE 15 26 8 14 1021.0 1020.3 0.0
29/08:00am 13.7 12.1 10.1 79 1.9 E 9 13 5 7 1020.9 1020.2 0.0
29/07:59am 13.6 12.0 10.2 80 1.8 E 9 13 5 7 1020.9 1020.2 0.0
29/07:30am 8.6 7.2 7.4 92 0.6 NNE 4 6 2 3 1020.6 1019.9 0.0
29/07:00am 7.3 6.0 5.9 91 0.6 ESE 2 4 1 2 1020.3 1019.7 0.0
29/06:30am 9.7 8.2 8.5 92 0.6 SE 6 7 3 4 1020.1 1019.5 0.0
29/06:00am 7.5 6.2 6.1 91 0.6 NE 2 4 1 2 1019.9 1019.3 0.0
29/05:30am 8.6 7.5 6.7 88 0.9 ESE 2 6 1 3 1019.7 1019.1 0.0
29/05:00am 9.5 8.4 6.9 84 1.2 SE 2 4 1 2 1019.5 1018.9 0.0
29/04:30am 10.4 8.6 8.0 85 1.2 ESE 7 11 4 6 1019.5 1018.9 0.0
29/04:00am 10.1 8.5 7.9 86 1.1 ESE 6 9 3 5 1019.4 1018.7 0.0
29/03:30am 10.3 8.5 7.9 85 1.2 E 7 11 4 6 1019.5 1018.9 0.0
29/03:00am 10.8 9.3 8.4 85 1.2 E 6 7 3 4 1019.8 1019.2 0.0
29/02:30am 10.4 9.1 7.5 82 1.4 E 4 7 2 4 1020.0 1019.4 0.0
29/02:00am 11.4 9.7 8.3 81 1.5 ESE 7 9 4 5 1020.1 1019.5 0.0
29/01:30am 12.2 10.3 9.0 81 1.6 SE 9 11 5 6 1020.3 1019.7 0.0
29/01:00am 12.9 10.3 9.5 80 1.7 SE 13 17 7 9 1020.5 1019.8 0.0
29/12:30am 13.1 11.4 9.9 81 1.7 SE 9 13 5 7 1020.7 1020.0 0.0
29/12:00am 13.0 11.3 9.8 81 1.7 SE 9 13 5 7 1020.6 1019.9 0.0
 
Date/Time
EDT
Tmp

°C
App
Tmp
°C
Dew
Point
°C
Rel
Hum
%
Delta-T

°C
Wind Press
QNH
hPa
Press
MSL
hPa
Rain
since
9 am
mm
Dir
 
Spd
km/h
Gust
km/h
Spd
kts
Gust
kts
28/11:30pm 13.7 11.3 9.9 78 2.0 SSE 13 20 7 11 1020.5 1019.8 0.0
28/11:00pm 14.0 11.1 9.6 75 2.3 SSE 15 22 8 12 1020.7 1020.0 0.0
28/10:30pm 14.0 10.3 9.4 74 2.4 SE 19 30 10 16 1020.6 1019.9 0.0
28/10:00pm 14.1 10.6 8.9 71 2.7 SE 17 24 9 13 1020.7 1020.0 0.0
28/09:30pm 14.4 11.2 8.6 68 3.0 SSE 15 24 8 13 1020.5 1019.8 0.0
28/09:00pm 15.0 11.2 7.5 61 3.7 SSE 17 24 9 13 1020.1 1019.5 0.0
28/08:30pm 15.8 11.3 7.1 56 4.3 SSE 20 33 11 18 1019.9 1019.3 0.0
28/08:00pm 16.7 12.1 6.5 51 5.1 SSE 20 32 11 17 1019.8 1019.2 0.0
28/07:30pm 17.4 11.3 6.6 49 5.4 SE 28 39 15 21 1019.6 1019.0 0.0
28/07:08pm 17.9 11.2 5.8 45 6.0 SE 30 50 16 27 1019.5 1018.9 0.0
28/07:00pm 17.8 10.6 5.7 45 5.9 SE 33 50 18 27 1019.4 1018.7 0.0
28/06:33pm 18.5 12.0 6.4 45 6.1 SE 30 50 16 27 1019.3 1018.6 0.0
28/06:30pm 18.8 11.9 6.6 45 6.2 SE 32 50 17 27 1019.3 1018.6 0.0
28/06:00pm 19.2 12.2 6.7 44 6.3 SE 33 50 18 27 1019.0 1018.3 0.0
28/05:30pm 20.1 14.3 7.8 45 6.4 SE 28 43 15 23 1019.0 1018.3 0.0
28/05:00pm 20.4 13.8 7.7 44 6.6 SE 32 43 17 23 1018.9 1018.2 0.0
28/04:35pm 21.1 15.2 7.7 42 7.0 SE 28 46 15 25 1018.8 1018.1 0.0
28/04:30pm 20.6 14.3 7.2 42 6.9 SE 30 46 16 25 1018.8 1018.1 0.0
28/04:00pm 21.7 15.3 8.6 43 7.0 SE 32 46 17 25 1018.9 1018.2 0.0
28/03:49pm 21.1 14.7 8.4 44 6.7 SE 32 50 17 27 1018.8 1018.1 0.0
28/03:30pm 22.0 16.1 8.9 43 7.0 SE 30 43 16 23 1018.9 1018.2 0.0
28/03:00pm 20.4 14.5 9.0 48 6.1 SE 30 43 16 23 1018.8 1018.1 0.0
28/02:30pm 21.6 16.0 10.1 48 6.3 SE 30 41 16 22 1018.9 1018.2 0.0
28/02:00pm 19.8 15.3 10.2 54 5.2 SE 24 37 13 20 1019.0 1018.3 0.0
28/01:30pm 20.4 15.6 10.2 52 5.6 SE 26 44 14 24 1019.1 1018.4 0.0
28/01:00pm 21.0 15.1 8.9 46 6.5 SE 30 39 16 21 1019.1 1018.4 0.0
28/12:45pm 20.0 14.5 9.0 49 5.9 ESE 28 46 15 25 1019.1 1018.4 0.0
28/12:30pm 20.4 15.0 9.6 50 5.8 SE 28 39 15 21 1019.1 1018.4 0.0
28/12:00pm 20.0 14.5 9.0 49 5.8 ESE 28 37 15 20 1019.2 1018.5 0.0
28/11:30am 18.2 13.3 8.5 53 5.1 SE 24 39 13 21 1019.3 1018.6 0.0
28/11:00am 18.5 13.7 8.7 53 5.1 SE 24 33 13 18 1019.4 1018.7 0.0
28/10:30am 17.7 13.5 8.3 54 4.9 SE 20 30 11 16 1019.4 1018.7 0.0
28/10:00am 17.3 12.3 7.9 54 4.8 SE 24 33 13 18 1019.3 1018.6 0.0
28/09:30am 17.4 13.3 8.5 56 4.6 ESE 20 37 11 20 1019.2 1018.5 0.0
28/09:00am 16.0 14.0 10.3 69 3.0 SE 11 19 6 10 1019.1 1018.4 0.0

Latest Capital City Observations: Canberra | Sydney | Melbourne | Brisbane | Adelaide | Perth | Hobart | Darwin

Other Formats:

Comma delimited format used in spreadsheet applications
http://www.bom.gov.au/fwo/IDV60901/IDV60901.94863.axf

JavaScript Object Notation format (JSON) in row-major order
http://www.bom.gov.au/fwo/IDV60901/IDV60901.94863.json